Aviation Digital Data Service (ADDS)

Output produced by METARs form (0922 UTC 28 March 2020)
found at http://aviationweather.gov/metar/data/
 
METAR text: KAVP 280854Z AUTO 07003KT 10SM OVC100 08/M03 A3004 RMK AO2 SLP171 T00781033 55004
Conditions at: KAVP (AVOCA/WILKES B. , PA, US) observed 0854 UTC 28 March 2020
Temperature: 7.8°C (46°F)
Dewpoint: -3.3°C (26°F) [RH = 45%]
Pressure (altimeter): 30.04 inches Hg (1017.4 mb)
[Sea-level pressure: 1017.1 mb]
Winds: from the ENE (70 degrees) at 3 MPH (3 knots; 1.5 m/s)
Visibility: 10 or more miles (16+ km)
Ceiling: 10000 feet AGL
Clouds: overcast cloud deck at 10000 feet AGL
Weather: automated observation with no human augmentation;
there may or may not be significant weather present at this time

METAR text: KAVP 280754Z AUTO 07007KT 10SM FEW120 07/M03 A3001 RMK AO2 SLP160 T00721028
Conditions at: KAVP (AVOCA/WILKES B. , PA, US) observed 0754 UTC 28 March 2020
Temperature: 7.2°C (45°F)
Dewpoint: -2.8°C (27°F) [RH = 49%]
Pressure (altimeter): 30.01 inches Hg (1016.3 mb)
[Sea-level pressure: 1016.0 mb]
Winds: from the ENE (70 degrees) at 8 MPH (7 knots; 3.6 m/s)
Visibility: 10 or more miles (16+ km)
Ceiling: at least 12,000 feet AGL
Clouds: few clouds at 12000 feet AGL
Weather: automated observation with no human augmentation;
there may or may not be significant weather present at this time

Forecast for: KAVP (AVOCA/WILKES B. , PA, US)
Text: KAVP 280835Z 2809/2906 VRB03KT P6SM OVC060
Forecast period: 0900 to 1500 UTC 28 March 2020
Forecast type: FROM: standard forecast or significant change
Winds: variable direction winds at 3 MPH (3 knots; 1.5 m/s)
Visibility: 6 or more miles 10+ km)
Ceiling: 6000 feet AGL
Clouds: overcast cloud deck at 6000 feet AGL
Weather: no significant weather forecast for this period
Text: FM281500 14006KT 4SM BR OVC025
Forecast period: 1500 to 1900 UTC 28 March 2020
Forecast type: FROM: standard forecast or significant change
Winds: from the SE (140 degrees) at 7 MPH (6 knots; 3.1 m/s)
Visibility: 4 miles (6 km)
Ceiling: 2500 feet AGL
Clouds: overcast cloud deck at 2500 feet AGL
Weather: BR  (mist)
Text: FM281900 13007KT 2SM RA OVC009
Forecast period: 1900 UTC 28 March 2020 to 0500 UTC 29 March 2020
Forecast type: FROM: standard forecast or significant change
Winds: from the SE (130 degrees) at 8 MPH (7 knots; 3.6 m/s)
Visibility: 2.00 miles (3.22 km)
Ceiling: 900 feet AGL
Clouds: overcast cloud deck at 900 feet AGL
Weather: RA  (moderate rain)
Text: FM290500 12010G18KT 3SM -RA OVC009
Forecast period: 0500 to 0600 UTC 29 March 2020
Forecast type: FROM: standard forecast or significant change
Winds: from the ESE (120 degrees) at 12 MPH (10 knots; 5.1 m/s)
gusting to 21 MPH (18 knots; 9.3 m/s)
Visibility: 3 miles (5 km)
Ceiling: 900 feet AGL
Clouds: overcast cloud deck at 900 feet AGL
Weather: -RA  (light rain)